Time;durP1;ratioP1;P1;durP2;ratioP2;P2;SDS_P1;SDS_P2;PMS_P1;PMS_P2;Temp;Humidity;BMP_temperature;BMP_pressure;BME280_temperature;BME280_humidity;BME280_pressure;Samples;Min_cycle;Max_cycle;Signal;HPM_P1;HPM_P2
2022/05/05 00:01:18;;;;;;;11.77;6.25;;;;;;;9.42;72.80;101884.34;4986065;28;20038;-75
2022/05/05 00:03:43;;;;;;;12.52;5.93;;;;;;;9.43;72.21;101888.81;4985577;28;20081;-69
2022/05/05 00:06:09;;;;;;;11.50;5.55;;;;;;;9.41;72.65;101889.81;4987644;28;20031;-75
2022/05/05 00:08:34;;;;;;;11.98;6.15;;;;;;;9.35;72.43;101884.72;4984962;28;20041;-76
2022/05/05 00:16:27;;;;;;;12.35;6.30;;;;;;;9.25;72.71;101897.00;4983710;28;20100;-70
2022/05/05 00:18:53;;;;;;;10.40;5.20;;;;;;;9.24;72.24;101890.69;4989970;28;20042;-76
2022/05/05 00:21:18;;;;;;;11.95;5.68;;;;;;;9.25;72.77;101884.28;4972992;28;20030;-76
2022/05/05 00:23:44;;;;;;;11.80;6.28;;;;;;;9.24;73.36;101887.09;4982650;28;20022;-69
2022/05/05 00:26:09;;;;;;;11.88;6.15;;;;;;;9.25;74.07;101891.56;4988034;28;20038;-69
2022/05/05 00:28:34;;;;;;;11.63;6.00;;;;;;;9.23;73.21;101886.19;4972191;28;20159;-76
2022/05/05 00:31:00;;;;;;;12.57;5.95;;;;;;;9.22;74.01;101894.44;4989387;28;20089;-76
2022/05/05 00:33:25;;;;;;;10.77;5.82;;;;;;;9.18;73.71;101890.97;4985623;28;20031;-76
2022/05/05 00:35:50;;;;;;;8.70;4.95;;;;;;;9.14;73.82;101884.84;4972765;28;20074;-74
2022/05/05 00:38:17;;;;;;;10.02;5.80;;;;;;;9.08;74.16;101886.97;4961873;28;20129;-70
2022/05/05 00:40:43;;;;;;;12.32;6.13;;;;;;;9.05;73.24;101881.72;4962941;28;20084;-74
2022/05/05 00:43:09;;;;;;;10.20;6.53;;;;;;;9.03;74.07;101884.47;4986891;28;20046;-75
2022/05/05 00:45:35;;;;;;;10.27;6.03;;;;;;;8.99;73.70;101879.28;4980122;28;20030;-76
2022/05/05 00:48:07;;;;;;;14.25;6.43;;;;;;;8.95;73.43;101883.97;4986856;28;20053;-74
2022/05/05 00:50:34;;;;;;;12.75;5.88;;;;;;;8.86;74.19;101873.56;4990757;28;20048;-70
2022/05/05 00:53:01;;;;;;;12.05;5.82;;;;;;;8.82;74.13;101877.41;4985323;28;20109;-73
2022/05/05 00:55:31;;;;;;;15.35;5.97;;;;;;;8.80;73.95;101885.59;4964513;28;20034;-69
2022/05/05 00:57:56;;;;;;;10.63;5.65;;;;;;;8.74;74.74;101879.59;4989612;28;20034;-69
2022/05/05 01:00:21;;;;;;;11.38;6.43;;;;;;;8.69;73.81;101878.00;4988989;28;20049;-76
2022/05/05 01:02:48;;;;;;;12.60;6.15;;;;;;;8.63;75.24;101877.41;4987232;28;20030;-76
2022/05/05 01:05:13;;;;;;;10.50;5.60;;;;;;;8.56;74.68;101876.81;4971993;28;20383;-69
2022/05/05 01:07:39;;;;;;;11.32;6.63;;;;;;;8.55;74.46;101885.91;4967811;28;20081;-69
2022/05/05 01:10:05;;;;;;;10.20;6.00;;;;;;;8.55;74.52;101888.63;4982303;28;20034;-72
2022/05/05 01:12:31;;;;;;;11.63;5.93;;;;;;;8.58;74.22;101890.28;4978291;28;20035;-69
2022/05/05 01:14:59;;;;;;;15.18;6.57;;;;;;;8.60;74.19;101880.25;4971523;28;20081;-69
2022/05/05 01:17:26;;;;;;;13.57;8.00;;;;;;;8.62;73.61;101886.47;4990411;28;20050;-70
2022/05/05 01:19:51;;;;;;;14.65;6.78;;;;;;;8.61;74.55;101882.00;4974673;28;20494;-76
2022/05/05 01:22:17;;;;;;;12.40;7.40;;;;;;;8.60;74.66;101875.72;4982524;28;20035;-69
2022/05/05 01:30:12;;;;;;;15.65;7.47;;;;;;;8.50;75.32;101878.94;4984538;28;20035;-69
2022/05/05 01:32:37;;;;;;;13.45;6.97;;;;;;;8.42;74.86;101876.59;4987821;28;20038;-69
2022/05/05 01:35:04;;;;;;;11.52;6.85;;;;;;;8.36;75.80;101883.19;4991911;28;20038;-75
2022/05/05 01:37:29;;;;;;;11.73;6.82;;;;;;;8.36;75.03;101884.97;4984115;28;20037;-71
2022/05/05 01:39:55;;;;;;;11.65;6.85;;;;;;;8.37;75.54;101882.22;4978542;28;20059;-78
2022/05/05 01:42:20;;;;;;;11.85;7.00;;;;;;;8.34;75.22;101871.47;4962436;28;20042;-77
2022/05/05 01:44:45;;;;;;;12.95;7.18;;;;;;;8.32;75.70;101873.38;4967810;28;20402;-74
2022/05/05 01:47:11;;;;;;;17.75;7.72;;;;;;;8.32;75.82;101869.81;4964283;28;20494;-70
2022/05/05 01:49:36;;;;;;;14.52;7.47;;;;;;;8.29;75.74;101878.06;4990535;28;20124;-76
2022/05/05 01:52:07;;;;;;;13.10;7.10;;;;;;;8.30;76.14;101878.00;4984424;28;20042;-77
2022/05/05 01:54:32;;;;;;;11.13;6.68;;;;;;;8.30;76.18;101877.09;4980950;28;20084;-77
2022/05/05 01:56:58;;;;;;;11.93;7.05;;;;;;;8.29;76.16;101875.34;4969940;28;20062;-70
2022/05/05 01:59:23;;;;;;;13.68;6.50;;;;;;;8.31;76.03;101876.19;4965075;28;20030;-70
2022/05/05 02:01:48;;;;;;;11.60;6.60;;;;;;;8.31;76.01;101877.06;4973725;28;20085;-76
2022/05/05 02:04:14;;;;;;;14.15;7.28;;;;;;;8.34;75.95;101882.31;4991614;28;20102;-70
2022/05/05 02:06:39;;;;;;;14.30;7.05;;;;;;;8.35;75.86;101886.81;4968678;28;20058;-77
2022/05/05 02:09:04;;;;;;;12.15;6.63;;;;;;;8.38;76.57;101880.38;4979466;28;20042;-77
2022/05/05 02:11:29;;;;;;;13.75;7.22;;;;;;;8.38;76.39;101881.25;4997097;28;20030;-77
2022/05/05 02:13:55;;;;;;;10.80;7.35;;;;;;;8.43;76.36;101887.34;4983054;28;20030;-69
2022/05/05 02:16:20;;;;;;;18.63;7.78;;;;;;;8.47;76.55;101898.94;4985529;28;20046;-70
2022/05/05 02:18:46;;;;;;;13.82;6.95;;;;;;;8.48;76.60;101889.84;4956753;28;20441;-75
2022/05/05 02:21:11;;;;;;;14.90;7.75;;;;;;;8.52;75.90;101890.59;4988814;28;20482;-77
2022/05/05 02:23:36;;;;;;;13.88;6.88;;;;;;;8.54;75.87;101884.16;4988377;28;20101;-71
2022/05/05 02:26:02;;;;;;;13.70;7.93;;;;;;;8.55;77.47;101885.03;4981760;28;20093;-76
2022/05/05 02:28:27;;;;;;;15.10;7.72;;;;;;;8.54;77.11;101883.28;4970220;28;20494;-69
2022/05/05 02:30:53;;;;;;;14.23;7.13;;;;;;;8.54;76.66;101885.97;4972137;28;20026;-75
2022/05/05 02:33:18;;;;;;;14.32;7.32;;;;;;;8.54;77.52;101888.69;4971666;28;20038;-69
2022/05/05 02:35:43;;;;;;;19.83;7.75;;;;;;;8.53;77.56;101889.63;4977527;28;20042;-76
2022/05/05 02:40:53;;;;;;;14.40;7.47;;;;;;;8.61;76.97;101893.75;4984961;28;20116;-69
2022/05/05 02:43:18;;;;;;;14.20;8.48;;;;;;;8.58;77.42;101891.19;4984367;28;20078;-76
2022/05/05 02:45:43;;;;;;;19.88;9.20;;;;;;;8.59;76.91;101894.78;4962355;28;20038;-75
2022/05/05 02:48:09;;;;;;;14.30;7.93;;;;;;;8.58;76.81;101893.91;4990765;28;20053;-76
2022/05/05 02:50:34;;;;;;;15.38;8.48;;;;;;;8.56;77.12;101890.38;4990647;28;20022;-77
2022/05/05 02:53:00;;;;;;;14.98;8.00;;;;;;;8.55;77.72;101888.63;4983059;28;20092;-76
2022/05/05 02:55:26;;;;;;;13.95;7.75;;;;;;;8.49;77.86;101893.47;4968813;28;20031;-70
2022/05/05 02:57:52;;;;;;;11.60;7.32;;;;;;;8.50;77.06;101893.38;4981216;28;20062;-77
2022/05/05 03:00:20;;;;;;;19.60;9.05;;;;;;;8.52;76.73;101899.59;4968878;28;20069;-76
2022/05/05 03:02:46;;;;;;;18.42;9.50;;;;;;;8.51;77.26;101892.41;4984329;28;20121;-70
2022/05/05 03:05:16;;;;;;;16.33;8.13;;;;;;;8.49;76.64;101890.75;4989233;28;20117;-77
2022/05/05 03:07:42;;;;;;;16.17;8.27;;;;;;;8.42;76.92;101884.72;4959230;28;20039;-77
2022/05/05 03:10:08;;;;;;;13.75;8.40;;;;;;;8.42;77.45;101893.72;4969608;28;20037;-76
2022/05/05 03:12:33;;;;;;;27.55;8.60;;;;;;;8.37;78.05;101886.75;4982363;28;20050;-77
2022/05/05 03:14:59;;;;;;;19.63;9.20;;;;;;;8.33;77.83;101888.69;4984134;28;20405;-71
2022/05/05 03:17:24;;;;;;;14.10;8.18;;;;;;;8.29;78.47;101891.63;4990258;28;20069;-70
2022/05/05 03:19:49;;;;;;;17.27;8.00;;;;;;;8.23;78.39;101891.91;4973049;28;20042;-75
2022/05/05 03:22:15;;;;;;;16.65;8.70;;;;;;;8.17;78.51;101898.50;4988077;28;20034;-69
2022/05/05 03:24:40;;;;;;;16.48;8.98;;;;;;;8.15;78.35;101892.25;4969603;28;20117;-70
2022/05/05 03:27:06;;;;;;;15.48;8.07;;;;;;;8.07;78.30;101892.63;4964007;28;20027;-70
2022/05/05 03:29:32;;;;;;;13.63;7.95;;;;;;;8.10;77.00;101897.88;4986659;28;20038;-70
2022/05/05 03:31:57;;;;;;;13.38;7.82;;;;;;;8.07;77.64;101906.16;4976006;28;20042;-77
2022/05/05 03:34:23;;;;;;;16.27;8.05;;;;;;;8.04;77.21;101894.59;4986538;28;20037;-76
2022/05/05 03:36:48;;;;;;;12.88;7.93;;;;;;;8.02;77.61;101901.88;4974293;28;20041;-69
2022/05/05 03:39:13;;;;;;;16.80;9.10;;;;;;;7.96;78.08;101902.16;4979376;28;20046;-73
2022/05/05 03:41:39;;;;;;;17.35;9.13;;;;;;;7.90;79.13;101900.63;4985577;28;20061;-70
2022/05/05 03:44:05;;;;;;;13.60;8.70;;;;;;;7.85;78.55;101897.22;4990188;28;20084;-70
2022/05/05 03:46:31;;;;;;;15.88;8.88;;;;;;;7.79;80.23;101909.22;4983170;28;20521;-77
2022/05/05 03:48:56;;;;;;;15.93;8.52;;;;;;;7.80;78.71;101907.41;4976733;28;20039;-76
2022/05/05 03:51:22;;;;;;;14.98;8.18;;;;;;;7.86;78.33;101904.41;4975505;28;20117;-76
2022/05/05 03:53:47;;;;;;;14.98;9.05;;;;;;;7.88;79.18;101908.81;4974497;28;20526;-70
2022/05/05 03:56:13;;;;;;;15.57;8.30;;;;;;;7.91;78.41;101905.94;4992761;28;20125;-70
2022/05/05 03:58:38;;;;;;;17.00;8.85;;;;;;;7.95;78.82;101909.41;4983680;28;20038;-70
2022/05/05 04:01:03;;;;;;;14.27;8.00;;;;;;;7.98;79.44;101912.00;4980073;28;20118;-76
2022/05/05 04:03:32;;;;;;;17.23;9.13;;;;;;;7.98;79.79;101914.72;4992243;28;20085;-74
2022/05/05 04:06:04;;;;;;;15.43;8.68;;;;;;;8.03;79.91;101920.81;4992036;28;20054;-76
2022/05/05 04:08:31;;;;;;;19.23;9.82;;;;;;;8.10;78.61;101927.69;4988246;28;20050;-75
2022/05/05 04:10:56;;;;;;;14.52;8.65;;;;;;;8.14;79.79;101926.63;4982872;28;20054;-70
2022/05/05 04:13:22;;;;;;;16.38;9.23;;;;;;;8.18;78.86;101925.53;4969213;28;20455;-75
2022/05/05 04:15:48;;;;;;;15.55;8.32;;;;;;;8.22;79.52;101930.81;4987461;28;20042;-75
2022/05/05 04:18:13;;;;;;;16.05;8.20;;;;;;;8.24;79.22;101928.91;4992686;28;20023;-77
2022/05/05 04:20:42;;;;;;;16.92;8.27;;;;;;;8.31;77.94;101925.84;4975359;28;20457;-71
2022/05/05 04:23:08;;;;;;;15.20;8.63;;;;;;;8.35;78.59;101934.75;4990856;28;20038;-75
2022/05/05 04:25:35;;;;;;;18.90;9.73;;;;;;;8.36;80.00;101933.78;4971298;28;20088;-76
2022/05/05 04:28:01;;;;;;;21.40;8.70;;;;;;;8.35;79.45;101943.75;4986937;28;20038;-76
2022/05/05 04:30:26;;;;;;;17.48;9.30;;;;;;;8.35;79.77;101935.63;4986539;28;20030;-70
2022/05/05 04:32:52;;;;;;;15.98;8.90;;;;;;;8.37;80.19;101946.41;4973505;28;20069;-74
2022/05/05 04:35:17;;;;;;;18.30;8.90;;;;;;;8.41;79.06;101940.78;4955906;28;20038;-75
2022/05/05 04:37:43;;;;;;;22.63;9.00;;;;;;;8.47;79.55;101945.03;4981696;28;20046;-70
2022/05/05 04:40:10;;;;;;;17.20;9.18;;;;;;;8.50;78.24;101946.75;4986835;28;20104;-77
2022/05/05 04:42:37;;;;;;;16.77;9.13;;;;;;;8.54;80.39;101948.38;4982430;28;20406;-70
2022/05/05 04:45:03;;;;;;;19.92;9.30;;;;;;;8.55;79.82;101951.00;4984490;28;20038;-70
2022/05/05 04:47:29;;;;;;;22.45;10.38;;;;;;;8.55;79.32;101947.41;4986771;28;20042;-76
2022/05/05 04:49:56;;;;;;;19.35;8.93;;;;;;;8.55;79.81;101940.16;4987762;28;20383;-74
2022/05/05 04:52:23;;;;;;;17.70;9.68;;;;;;;8.58;79.80;101944.53;4970974;28;20045;-75
2022/05/05 04:54:48;;;;;;;21.63;10.00;;;;;;;8.64;79.41;101941.56;4985422;28;20025;-70
2022/05/05 04:57:13;;;;;;;18.85;8.95;;;;;;;8.68;79.87;101944.06;4985771;28;20043;-70
2022/05/05 04:59:39;;;;;;;20.23;9.18;;;;;;;8.72;79.83;101949.31;4986136;28;20069;-70
2022/05/05 05:02:04;;;;;;;19.98;10.05;;;;;;;8.75;79.36;101943.75;4985417;28;20371;-76
2022/05/05 05:04:30;;;;;;;14.73;9.38;;;;;;;8.79;79.79;101946.25;4989077;28;20053;-75
2022/05/05 05:06:55;;;;;;;18.20;9.38;;;;;;;8.82;79.52;101950.66;4985110;28;20042;-70
2022/05/05 05:09:20;;;;;;;18.10;9.18;;;;;;;8.84;79.24;101957.75;4984754;28;20046;-71
2022/05/05 05:11:46;;;;;;;21.10;9.93;;;;;;;8.86;79.46;101960.41;4966653;28;20043;-69
2022/05/05 05:14:11;;;;;;;18.45;9.80;;;;;;;8.92;78.39;101966.44;4969601;28;20022;-70
2022/05/05 05:16:36;;;;;;;17.10;9.20;;;;;;;8.98;79.00;101967.97;4987357;28;20042;-70
2022/05/05 05:19:03;;;;;;;14.70;8.82;;;;;;;9.04;78.31;101970.38;4984122;28;20136;-76
2022/05/05 05:21:29;;;;;;;19.73;9.98;;;;;;;9.10;78.54;101974.66;4985759;28;20042;-70
2022/05/05 05:23:54;;;;;;;18.40;9.15;;;;;;;9.15;78.34;101972.59;4972975;28;20025;-70
2022/05/05 05:26:19;;;;;;;17.58;8.75;;;;;;;9.17;78.07;101971.53;4981694;28;20069;-76
2022/05/05 05:28:44;;;;;;;19.73;10.10;;;;;;;9.21;79.06;101980.44;4952926;28;20516;-70
2022/05/05 05:31:10;;;;;;;17.38;9.98;;;;;;;9.24;79.93;101980.28;4981760;28;20438;-75
2022/05/05 05:33:35;;;;;;;20.50;10.32;;;;;;;9.31;79.11;101980.88;4988961;28;20042;-70
2022/05/05 05:36:01;;;;;;;19.75;10.15;;;;;;;9.37;79.90;101984.19;4988025;28;20046;-75
2022/05/05 05:38:26;;;;;;;24.60;10.80;;;;;;;9.40;78.58;101973.13;4961679;28;20097;-69
2022/05/05 05:40:52;;;;;;;18.77;10.30;;;;;;;9.51;78.05;101979.88;4970802;28;20034;-70
2022/05/05 05:43:17;;;;;;;15.45;9.63;;;;;;;9.62;79.01;101982.94;4983263;28;20042;-75
2022/05/05 05:45:43;;;;;;;20.85;10.88;;;;;;;9.73;78.45;101990.56;4978744;28;20092;-75
2022/05/05 05:48:08;;;;;;;19.42;10.38;;;;;;;9.84;77.94;101985.44;4970998;28;20134;-76
2022/05/05 05:50:34;;;;;;;19.05;10.30;;;;;;;9.95;76.66;101991.22;4970361;28;20041;-75
2022/05/05 05:53:00;;;;;;;19.35;11.20;;;;;;;10.07;76.44;101993.31;4983182;28;20397;-75
2022/05/05 05:55:26;;;;;;;19.20;11.57;;;;;;;10.20;75.76;101988.09;4979786;28;20043;-72
2022/05/05 05:57:51;;;;;;;20.83;12.05;;;;;;;10.30;75.73;101988.53;4969231;28;20030;-75
2022/05/05 06:00:17;;;;;;;19.73;11.25;;;;;;;10.40;75.61;101996.13;4963554;28;20545;-75
2022/05/05 06:05:27;;;;;;;18.15;12.25;;;;;;;10.61;74.33;102002.25;4976627;28;20042;-70
2022/05/05 06:07:57;;;;;;;28.98;15.40;;;;;;;10.71;73.95;102006.22;4979444;28;20138;-75
2022/05/05 06:10:22;;;;;;;23.70;14.27;;;;;;;10.83;74.12;102001.97;4986492;28;20046;-76
2022/05/05 06:12:48;;;;;;;24.40;13.68;;;;;;;10.98;73.07;102009.28;4978650;28;20127;-69
2022/05/05 06:15:13;;;;;;;23.38;14.77;;;;;;;11.12;72.61;102011.22;4968334;28;20050;-76
2022/05/05 06:17:39;;;;;;;28.35;16.55;;;;;;;11.20;71.32;102006.25;4988281;28;20030;-69
2022/05/05 06:20:05;;;;;;;36.70;15.55;;;;;;;11.34;72.00;102010.91;4970188;28;20656;-76
2022/05/05 06:22:30;;;;;;;24.98;14.80;;;;;;;11.47;71.08;102005.59;4979315;28;20161;-70
2022/05/05 06:24:56;;;;;;;26.27;15.25;;;;;;;11.59;71.85;102002.19;4983219;28;20034;-70
2022/05/05 06:27:21;;;;;;;28.98;16.02;;;;;;;11.71;71.24;102001.47;4966735;28;20510;-69
2022/05/05 06:29:46;;;;;;;27.58;14.57;;;;;;;11.83;70.37;102010.81;4967498;28;20042;-69
2022/05/05 06:32:12;;;;;;;25.40;14.18;;;;;;;11.95;70.54;102006.47;4969747;28;20042;-70
2022/05/05 06:34:37;;;;;;;26.98;16.15;;;;;;;12.08;70.19;102010.25;4971633;28;20445;-70
2022/05/05 06:37:03;;;;;;;27.08;15.27;;;;;;;12.27;70.88;102006.41;4977966;28;20104;-68
2022/05/05 06:39:28;;;;;;;24.70;14.48;;;;;;;12.44;70.13;102007.09;4988221;28;20047;-71
2022/05/05 06:41:54;;;;;;;28.63;14.05;;;;;;;12.59;69.72;102002.56;4987118;28;20109;-68
2022/05/05 06:44:19;;;;;;;25.27;13.13;;;;;;;12.76;68.05;102012.41;4987344;28;20041;-69
2022/05/05 06:46:45;;;;;;;26.20;14.60;;;;;;;12.89;67.72;102007.06;4972607;28;20030;-69
2022/05/05 06:49:12;;;;;;;27.55;13.88;;;;;;;13.01;66.34;102014.47;4989595;28;20399;-69
2022/05/05 06:51:37;;;;;;;26.92;14.25;;;;;;;13.13;66.11;101999.13;4956969;28;20042;-68
2022/05/05 06:54:03;;;;;;;27.58;15.52;;;;;;;13.28;65.89;102006.34;4989113;28;20112;-76
2022/05/05 06:56:29;;;;;;;35.08;15.82;;;;;;;13.44;65.95;102014.44;4978804;28;20118;-76
2022/05/05 06:58:54;;;;;;;27.27;14.85;;;;;;;13.59;65.32;102018.03;4981667;28;20033;-68
2022/05/05 07:06:48;;;;;;;23.77;14.85;;;;;;;14.27;64.13;102017.94;4995404;28;20027;-68
2022/05/05 07:11:57;;;;;;;31.95;18.05;;;;;;;14.64;63.35;102027.25;4994486;28;20619;-69
2022/05/05 07:14:22;;;;;;;30.77;17.15;;;;;;;14.77;63.49;102035.44;4988968;28;20046;-73
2022/05/05 07:16:48;;;;;;;39.58;19.63;;;;;;;14.91;64.00;102037.19;4995654;28;20048;-68
2022/05/05 07:19:13;;;;;;;40.47;21.25;;;;;;;15.03;61.47;102034.44;4979410;28;20042;-68
2022/05/05 07:21:38;;;;;;;39.05;19.92;;;;;;;15.24;63.18;102039.34;4995402;28;20038;-68
2022/05/05 07:24:05;;;;;;;39.75;20.45;;;;;;;15.40;63.40;102042.75;4995210;28;20101;-67
2022/05/05 07:26:30;;;;;;;40.03;21.27;;;;;;;15.53;62.72;102043.59;4978125;28;20038;-68
2022/05/05 07:28:55;;;;;;;40.35;21.58;;;;;;;15.56;61.93;102036.97;4993946;28;20553;-75
2022/05/05 07:31:21;;;;;;;37.90;20.17;;;;;;;15.62;62.70;102053.00;4971882;28;20034;-74
2022/05/05 07:33:46;;;;;;;43.50;22.23;;;;;;;15.61;60.67;102053.97;4996720;28;20039;-68
2022/05/05 07:36:11;;;;;;;42.38;22.65;;;;;;;15.73;62.98;102057.72;4995454;28;20034;-68
2022/05/05 07:38:37;;;;;;;44.45;23.38;;;;;;;15.88;60.60;102045.56;4969828;28;20113;-75
2022/05/05 07:41:02;;;;;;;42.92;23.27;;;;;;;16.05;60.61;102055.28;4984376;28;20062;-67
2022/05/05 07:43:28;;;;;;;39.95;22.27;;;;;;;16.10;61.25;102053.06;4991655;28;20034;-73
2022/05/05 07:45:53;;;;;;;48.25;23.20;;;;;;;16.31;61.25;102050.50;4986522;28;20409;-67
2022/05/05 07:48:19;;;;;;;45.80;22.98;;;;;;;16.62;58.63;102060.00;4996581;28;20041;-67
2022/05/05 07:50:47;;;;;;;44.28;21.67;;;;;;;16.76;57.87;102057.06;4992580;28;20477;-67
2022/05/05 07:53:13;;;;;;;37.63;21.85;;;;;;;16.68;58.79;102055.88;4990412;28;20034;-75
2022/05/05 07:55:38;;;;;;;41.50;21.48;;;;;;;16.55;57.20;102059.63;4977695;28;20051;-67
2022/05/05 07:58:04;;;;;;;38.75;21.45;;;;;;;16.43;56.53;102066.06;4989314;28;20034;-70
2022/05/05 08:00:29;;;;;;;41.75;22.48;;;;;;;16.27;58.04;102063.63;4988323;28;20035;-74
2022/05/05 08:02:55;;;;;;;39.95;21.98;;;;;;;16.37;58.06;102069.28;4962697;28;20443;-74
2022/05/05 08:05:20;;;;;;;38.55;20.88;;;;;;;16.41;56.59;102070.78;4994982;28;20429;-74
2022/05/05 08:07:48;;;;;;;41.17;23.02;;;;;;;16.32;57.71;102069.66;4987849;28;20513;-70
2022/05/05 08:10:13;;;;;;;48.63;25.30;;;;;;;16.33;57.29;102070.53;4990327;28;20034;-74
2022/05/05 08:12:39;;;;;;;46.08;24.80;;;;;;;16.33;57.07;102078.75;4980853;28;20053;-75
2022/05/05 08:15:06;;;;;;;48.03;25.38;;;;;;;16.40;57.42;102073.66;4992898;28;20034;-75
2022/05/05 08:17:33;;;;;;;42.97;23.95;;;;;;;16.42;57.35;102074.44;4993126;28;20553;-68
2022/05/05 08:19:59;;;;;;;48.88;25.45;;;;;;;16.46;57.28;102078.66;4993056;28;20743;-75
2022/05/05 08:22:25;;;;;;;43.63;23.75;;;;;;;16.60;58.17;102075.75;4988196;28;20541;-67
2022/05/05 08:30:19;;;;;;;42.70;24.13;;;;;;;16.42;57.25;102086.28;4968822;28;20031;-68
2022/05/05 08:32:44;;;;;;;44.25;24.60;;;;;;;16.49;58.88;102086.66;4992480;28;20144;-68
2022/05/05 08:35:10;;;;;;;49.05;24.48;;;;;;;16.50;58.71;102089.28;4975285;28;20089;-72
2022/05/05 08:37:35;;;;;;;47.13;25.88;;;;;;;16.57;58.39;102096.06;4974075;28;20022;-67
2022/05/05 08:40:02;;;;;;;42.03;24.88;;;;;;;16.69;60.84;102093.34;4985375;28;20043;-75
2022/05/05 08:42:27;;;;;;;47.13;23.98;;;;;;;16.75;57.44;102092.94;4983457;28;20051;-68
2022/05/05 08:44:52;;;;;;;45.92;24.73;;;;;;;16.90;56.58;102090.84;4989827;28;20034;-68
2022/05/05 08:47:23;;;;;;;41.53;24.65;;;;;;;16.97;57.99;102095.75;4986057;28;20100;-75
2022/05/05 08:49:49;;;;;;;46.47;23.38;;;;;;;17.14;57.12;102104.50;4987782;28;20038;-67
2022/05/05 08:52:18;;;;;;;46.03;25.10;;;;;;;17.22;57.92;102105.63;4981265;28;20410;-68
2022/05/05 08:54:44;;;;;;;48.30;25.65;;;;;;;17.14;56.03;102099.88;4988840;28;20199;-67
2022/05/05 08:57:10;;;;;;;43.83;25.10;;;;;;;17.29;55.47;102100.50;4980764;28;20034;-67
2022/05/05 08:59:35;;;;;;;44.17;25.05;;;;;;;17.13;56.37;102100.88;4987897;28;20220;-74
2022/05/05 09:02:00;;;;;;;43.97;23.55;;;;;;;16.97;55.43;102103.06;4981286;28;20034;-75
2022/05/05 09:04:26;;;;;;;44.47;23.02;;;;;;;16.83;55.87;102109.66;4992168;28;20029;-75
2022/05/05 09:06:53;;;;;;;46.67;24.88;;;;;;;16.76;55.88;102108.41;4991593;28;20109;-74
2022/05/05 09:09:31;;;;;;;46.03;24.00;;;;;;;16.93;58.56;102105.22;4984957;28;20034;-75
2022/05/05 09:12:10;;;;;;;44.42;26.13;;;;;;;17.22;57.01;102116.63;4972765;28;20034;-68
2022/05/05 09:14:40;;;;;;;46.17;26.15;;;;;;;17.31;54.40;102110.41;4985566;28;20134;-67
2022/05/05 09:17:07;;;;;;;42.50;23.83;;;;;;;17.40;54.85;102108.78;4988467;28;20046;-75
2022/05/05 09:19:37;;;;;;;47.97;26.20;;;;;;;17.56;55.68;102114.75;4991775;28;20470;-68
2022/05/05 09:22:07;;;;;;;49.90;27.75;;;;;;;17.54;54.30;102114.03;4990818;28;20034;-68
2022/05/05 09:24:35;;;;;;;45.03;25.05;;;;;;;17.63;54.72;102109.66;4991240;28;20092;-75
2022/05/05 09:27:19;;;;;;;48.45;26.77;;;;;;;18.00;56.02;102117.63;4984012;28;20092;-70
2022/05/05 09:30:06;;;;;;;48.10;24.80;;;;;;;18.43;55.75;102111.25;4990220;28;20030;-74
2022/05/05 09:32:43;;;;;;;46.05;25.10;;;;;;;18.50;54.41;102117.97;4986487;28;20113;-74
2022/05/05 09:35:18;;;;;;;47.45;24.85;;;;;;;18.74;53.89;102121.41;4983153;28;20525;-68
2022/05/05 09:37:48;;;;;;;46.13;25.10;;;;;;;18.82;52.19;102123.50;4982868;28;20038;-67
2022/05/05 09:40:19;;;;;;;46.47;26.67;;;;;;;18.76;53.50;102122.16;4986159;28;20043;-76
2022/05/05 09:42:52;;;;;;;50.60;25.15;;;;;;;19.13;53.86;102118.06;4984324;28;20030;-74
2022/05/05 09:45:21;;;;;;;41.15;24.77;;;;;;;19.49;51.89;102123.06;4990096;28;20475;-68
2022/05/05 09:47:52;;;;;;;46.35;25.42;;;;;;;19.72;51.41;102132.03;4988549;28;20038;-76
2022/05/05 09:50:21;;;;;;;48.65;26.95;;;;;;;19.68;48.25;102135.22;4989171;28;20045;-67
2022/05/05 09:58:26;;;;;;;51.80;27.58;;;;;;;19.02;50.58;102136.41;4984380;28;20043;-67
2022/05/05 10:01:00;;;;;;;46.22;28.13;;;;;;;19.38;52.55;102135.03;4978473;28;20041;-67
2022/05/05 10:06:42;;;;;;;50.05;27.80;;;;;;;19.40;52.55;102139.53;4973613;28;20034;-68
2022/05/05 10:09:10;;;;;;;49.28;27.63;;;;;;;19.56;50.07;102138.03;4983032;28;20394;-67
2022/05/05 10:11:36;;;;;;;49.67;29.00;;;;;;;19.66;48.23;102140.88;4977195;28;20034;-75
2022/05/05 10:14:04;;;;;;;46.90;27.33;;;;;;;19.75;48.40;102131.75;4980675;28;20109;-74
2022/05/05 10:16:31;;;;;;;43.67;27.98;;;;;;;20.01;49.82;102129.38;4986521;28;20061;-67
2022/05/05 10:19:02;;;;;;;46.08;29.65;;;;;;;20.30;47.40;102132.22;4990965;28;20034;-69
2022/05/05 10:21:51;;;;;;;54.33;30.60;;;;;;;20.43;48.64;102140.22;4990916;28;20038;-67
2022/05/05 10:24:26;;;;;;;50.33;30.83;;;;;;;20.23;48.37;102132.91;4990649;28;20489;-74
2022/05/05 10:26:54;;;;;;;48.33;29.40;;;;;;;20.38;48.20;102135.13;4983520;28;20433;-74
2022/05/05 10:29:32;;;;;;;48.42;30.25;;;;;;;20.43;48.36;102134.69;4989924;28;20494;-67
2022/05/05 10:32:10;;;;;;;49.60;30.02;;;;;;;20.18;47.51;102126.94;4982880;28;20092;-66
2022/05/05 10:34:37;;;;;;;53.63;31.73;;;;;;;19.87;46.85;102127.03;4972764;28;20062;-73
2022/05/05 10:37:13;;;;;;;49.45;30.15;;;;;;;19.84;50.88;102136.44;4981655;28;20077;-74
2022/05/05 10:40:03;;;;;;;45.03;30.60;;;;;;;20.00;47.97;102127.63;4975570;28;20086;-71
2022/05/05 10:42:44;;;;;;;55.13;31.48;;;;;;;20.24;47.59;102132.78;4969650;28;20085;-74
2022/05/05 10:45:10;;;;;;;47.53;31.05;;;;;;;20.53;48.10;102120.91;4982873;28;20177;-67
2022/05/05 10:47:55;;;;;;;53.83;30.38;;;;;;;20.93;49.10;102129.03;4986084;28;20140;-67
2022/05/05 10:53:40;;;;;;;42.30;29.20;;;;;;;21.49;49.25;102128.22;4984906;28;20034;-67
2022/05/05 10:56:29;;;;;;;44.50;28.05;;;;;;;21.80;47.54;102127.94;4979228;28;20462;-75
2022/05/05 10:59:06;;;;;;;38.63;26.52;;;;;;;22.13;44.87;102130.13;4983884;28;20129;-74
2022/05/05 11:01:56;;;;;;;46.83;29.75;;;;;;;22.40;45.38;102125.56;4977642;28;20026;-68
2022/05/05 11:04:29;;;;;;;39.55;25.73;;;;;;;22.38;43.98;102128.50;4984242;28;20085;-68
2022/05/05 11:07:20;;;;;;;43.40;27.55;;;;;;;22.12;45.89;102124.75;4975747;28;20038;-67
2022/05/05 11:09:45;;;;;;;46.22;29.15;;;;;;;21.74;44.25;102123.03;4978250;28;20406;-70
2022/05/05 11:12:22;;;;;;;39.50;26.45;;;;;;;21.73;45.02;102126.78;4975996;28;20041;-68
2022/05/05 11:23:28;;;;;;;44.15;29.40;;;;;;;21.13;45.49;102125.22;4977179;28;20038;-67
2022/05/05 11:25:54;;;;;;;44.55;28.80;;;;;;;20.87;48.74;102130.50;4982840;28;20437;-73
2022/05/05 11:28:20;;;;;;;43.47;28.02;;;;;;;20.76;44.37;102121.50;4955115;28;20042;-67
2022/05/05 11:30:46;;;;;;;40.58;27.85;;;;;;;20.55;47.78;102124.41;4983542;28;20065;-67
2022/05/05 11:33:13;;;;;;;42.67;27.33;;;;;;;20.40;44.40;102126.69;4990872;28;20459;-74
2022/05/05 11:35:38;;;;;;;35.85;22.42;;;;;;;20.71;47.51;102123.84;4989788;28;20050;-75
2022/05/05 11:38:08;;;;;;;36.75;22.17;;;;;;;21.12;47.18;102131.78;4986673;28;20510;-66
2022/05/05 11:40:36;;;;;;;33.03;21.13;;;;;;;21.58;47.12;102121.75;4982172;28;20043;-73
2022/05/05 11:45:52;;;;;;;36.50;23.00;;;;;;;22.06;44.89;102117.91;4975422;28;20074;-71
2022/05/05 11:48:18;;;;;;;35.70;24.15;;;;;;;22.40;45.14;102120.03;4990042;28;20085;-75
2022/05/05 11:50:44;;;;;;;37.47;25.73;;;;;;;22.53;40.63;102117.75;4990526;28;20034;-65
2022/05/05 11:53:17;;;;;;;34.50;22.50;;;;;;;22.74;43.04;102117.41;4983509;28;20040;-65
2022/05/05 11:55:46;;;;;;;35.75;25.02;;;;;;;22.92;43.21;102111.88;4984944;28;20398;-66
2022/05/05 12:01:36;;;;;;;36.25;24.02;;;;;;;22.95;43.18;102116.25;4987515;28;20498;-74
2022/05/05 12:04:01;;;;;;;31.98;21.60;;;;;;;23.05;42.38;102112.31;4975970;28;20255;-75
2022/05/05 12:06:28;;;;;;;35.88;23.10;;;;;;;22.97;41.77;102108.59;4990177;28;20070;-66
2022/05/05 12:08:56;;;;;;;41.33;25.13;;;;;;;22.88;39.61;102113.19;4984339;28;20541;-66
2022/05/05 12:11:21;;;;;;;35.75;24.52;;;;;;;22.79;41.46;102103.91;4980033;28;20038;-66
2022/05/05 12:13:49;;;;;;;35.72;22.73;;;;;;;22.96;42.90;102104.09;4984761;28;20445;-74